Vermilion, Ohio
Current Conditions -  °F | °C
As of 7:53 AM on Friday 19 Dec 2014 (Local Time) from KLPR Reporting Station
Haze Haze  
Wind Chill: 23°   Ceiling: 1100
Heat Index: 28°   Visibility: 5mi
Dew Point: 27°   Wind: 5mph
Humidity: 96%   Direction: 330°NNW
Pressure: 30.24"   Gusts: NA
Location:  41.42°N, 82.36°W
Report Text: KLPR 191253Z AUTO 33004KT 5SM BR BKN011 OVC014 M02/M03 A3024 RMK AO2 CIG 006V012 SLP250 I1001 T10221028 TSNO
Loading
Personal Weather Stations






























Interactive Weather Map New forecast layout! Learn more

10-Day Weather Forecast

Advertisements
Track Severe Weather on mobile